Time;durP1;ratioP1;P1;durP2;ratioP2;P2;SDS_P1;SDS_P2;PMS_P1;PMS_P2;Temp;Humidity;BMP_temperature;BMP_pressure;BME280_temperature;BME280_humidity;BME280_pressure;Samples;Min_cycle;Max_cycle;Signal;HPM_P1;HPM_P2
2023/12/07 00:00:07;;;;;;;57.30;21.77;;;;;;;;;;1044663;28;20693;-68
2023/12/07 00:00:37;;;;;;;49.85;22.45;;;;;;;;;;1042356;28;20052;-68
2023/12/07 00:01:28;;;;;;;46.38;21.52;;;;;;;;;;1042898;28;20059;-68
2023/12/07 00:01:59;;;;;;;49.03;21.92;;;;;;;;;;1042763;28;20044;-69
2023/12/07 00:02:29;;;;;;;50.78;22.00;;;;;;;;;;1044430;28;20401;-69
2023/12/07 00:03:00;;;;;;;49.67;20.48;;;;;;;;;;1044285;28;20048;-69
2023/12/07 00:03:30;;;;;;;49.03;21.52;;;;;;;;;;1041993;28;20143;-69
2023/12/07 00:04:01;;;;;;;47.67;20.83;;;;;;;;;;1044159;28;20090;-69
2023/12/07 00:04:32;;;;;;;52.63;21.42;;;;;;;;;;1042749;28;20128;-69
2023/12/07 00:05:03;;;;;;;47.40;21.13;;;;;;;;;;1043234;28;20401;-69
2023/12/07 00:05:34;;;;;;;46.50;19.58;;;;;;;;;;1043931;28;20045;-68
2023/12/07 00:06:04;;;;;;;49.35;22.27;;;;;;;;;;1042684;28;20688;-68
2023/12/07 00:06:35;;;;;;;51.25;22.42;;;;;;;;;;1041910;28;20226;-68
2023/12/07 00:07:06;;;;;;;53.63;22.98;;;;;;;;;;1042602;28;20095;-68
2023/12/07 00:07:36;;;;;;;55.67;22.17;;;;;;;;;;1042256;28;20056;-68
2023/12/07 00:08:10;;;;;;;53.67;21.77;;;;;;;;;;1045285;28;20399;-68
2023/12/07 00:08:41;;;;;;;48.40;22.40;;;;;;;;;;1043774;28;20052;-69
2023/12/07 00:09:11;;;;;;;52.90;22.17;;;;;;;;;;1046103;28;20052;-68
2023/12/07 00:09:42;;;;;;;51.58;21.95;;;;;;;;;;1048242;28;20110;-69
2023/12/07 00:10:13;;;;;;;45.80;20.08;;;;;;;;;;1049806;28;20047;-69
2023/12/07 00:10:43;;;;;;;47.95;21.45;;;;;;;;;;1048430;28;20044;-68
2023/12/07 00:11:14;;;;;;;48.75;22.02;;;;;;;;;;1050978;28;20052;-69
2023/12/07 00:11:44;;;;;;;46.97;20.83;;;;;;;;;;1048989;28;20496;-68
2023/12/07 00:12:15;;;;;;;52.97;21.33;;;;;;;;;;1049282;28;20043;-68
2023/12/07 00:12:46;;;;;;;47.08;21.92;;;;;;;;;;1048839;28;20052;-68
2023/12/07 00:13:16;;;;;;;47.40;20.92;;;;;;;;;;1049533;28;20099;-68
2023/12/07 00:13:48;;;;;;;51.17;20.75;;;;;;;;;;1045620;28;20060;-68
2023/12/07 00:14:19;;;;;;;48.05;21.85;;;;;;;;;;1044814;28;20617;-68
2023/12/07 00:14:50;;;;;;;49.83;21.17;;;;;;;;;;1050726;28;20392;-68
2023/12/07 00:15:20;;;;;;;50.05;21.73;;;;;;;;;;1049142;28;20044;-69
2023/12/07 00:15:51;;;;;;;50.17;21.40;;;;;;;;;;1050251;28;20400;-69
2023/12/07 00:16:21;;;;;;;49.65;21.27;;;;;;;;;;1046145;28;20040;-69
2023/12/07 00:16:52;;;;;;;48.78;20.55;;;;;;;;;;1050772;28;20093;-67
2023/12/07 00:17:22;;;;;;;50.97;22.40;;;;;;;;;;1049621;28;20488;-68
2023/12/07 00:17:53;;;;;;;49.80;21.17;;;;;;;;;;1050038;28;20040;-68
2023/12/07 00:18:24;;;;;;;46.95;20.35;;;;;;;;;;1050176;28;20036;-68
2023/12/07 00:18:54;;;;;;;53.05;22.42;;;;;;;;;;1049424;28;20040;-68
2023/12/07 00:19:25;;;;;;;49.97;21.10;;;;;;;;;;1049481;28;20051;-69
2023/12/07 00:19:55;;;;;;;54.38;22.48;;;;;;;;;;1050505;28;20079;-69
2023/12/07 00:20:26;;;;;;;50.97;22.35;;;;;;;;;;1049959;28;20138;-68
2023/12/07 00:20:56;;;;;;;56.92;20.95;;;;;;;;;;1048704;28;20047;-69
2023/12/07 00:21:27;;;;;;;47.88;20.85;;;;;;;;;;1048996;28;20598;-68
2023/12/07 00:21:58;;;;;;;49.20;21.27;;;;;;;;;;1050602;28;20063;-69
2023/12/07 00:22:28;;;;;;;46.28;20.30;;;;;;;;;;1049083;28;20044;-69
2023/12/07 00:22:59;;;;;;;52.22;21.85;;;;;;;;;;1048939;28;20483;-68
2023/12/07 00:23:29;;;;;;;42.30;19.92;;;;;;;;;;1050519;28;20511;-68
2023/12/07 00:24:01;;;;;;;48.60;21.63;;;;;;;;;;1050295;28;20051;-69
2023/12/07 00:24:31;;;;;;;48.15;20.27;;;;;;;;;;1048670;28;20051;-68
2023/12/07 00:25:02;;;;;;;52.85;21.45;;;;;;;;;;1047825;28;20052;-69
2023/12/07 00:25:33;;;;;;;50.70;21.63;;;;;;;;;;1049984;28;20123;-68
2023/12/07 00:26:04;;;;;;;59.47;22.10;;;;;;;;;;1050657;28;20070;-68
2023/12/07 00:26:35;;;;;;;48.90;20.85;;;;;;;;;;1049264;28;20069;-68
2023/12/07 00:27:05;;;;;;;46.00;21.30;;;;;;;;;;1049697;28;20646;-69
2023/12/07 00:27:36;;;;;;;51.72;22.02;;;;;;;;;;1047087;28;20062;-69
2023/12/07 00:28:07;;;;;;;45.17;19.95;;;;;;;;;;1049128;28;20040;-68
2023/12/07 00:28:37;;;;;;;47.63;19.48;;;;;;;;;;1049391;28;20048;-68
2023/12/07 00:29:08;;;;;;;48.58;22.02;;;;;;;;;;1049786;28;20396;-69
2023/12/07 00:29:39;;;;;;;51.92;22.00;;;;;;;;;;1049680;28;20738;-68
2023/12/07 00:30:10;;;;;;;50.28;21.15;;;;;;;;;;1050758;28;20121;-68
2023/12/07 00:30:42;;;;;;;47.17;20.10;;;;;;;;;;1044904;28;20055;-68
2023/12/07 00:31:12;;;;;;;44.60;20.13;;;;;;;;;;1044292;28;20039;-68
2023/12/07 00:31:43;;;;;;;54.30;21.25;;;;;;;;;;1048629;28;20056;-68
2023/12/07 00:32:14;;;;;;;47.60;20.83;;;;;;;;;;1050188;28;20097;-69
2023/12/07 00:32:46;;;;;;;54.95;22.73;;;;;;;;;;1045603;28;20109;-68
2023/12/07 00:33:17;;;;;;;51.40;20.95;;;;;;;;;;1044400;28;20040;-69
2023/12/07 00:33:47;;;;;;;49.20;21.15;;;;;;;;;;1043388;28;20167;-68
2023/12/07 00:34:18;;;;;;;53.60;21.65;;;;;;;;;;1041878;28;20122;-68
2023/12/07 00:34:49;;;;;;;54.38;22.08;;;;;;;;;;1042659;28;20044;-69
2023/12/07 00:35:22;;;;;;;49.90;21.15;;;;;;;;;;1043836;28;20488;-68
2023/12/07 00:35:52;;;;;;;58.88;21.90;;;;;;;;;;1042333;28;20401;-69
2023/12/07 00:36:23;;;;;;;59.92;21.70;;;;;;;;;;1042073;28;20457;-68
2023/12/07 00:36:53;;;;;;;48.17;20.30;;;;;;;;;;1043754;28;20040;-69
2023/12/07 00:37:24;;;;;;;53.50;21.88;;;;;;;;;;1042568;28;21097;-68
2023/12/07 00:37:56;;;;;;;48.63;22.42;;;;;;;;;;1042068;28;20044;-68
2023/12/07 00:38:26;;;;;;;51.85;21.95;;;;;;;;;;1045889;28;20045;-68
2023/12/07 00:38:57;;;;;;;52.30;21.75;;;;;;;;;;1049599;28;20044;-69
2023/12/07 00:39:27;;;;;;;48.83;22.20;;;;;;;;;;1047758;28;20044;-68
2023/12/07 00:39:58;;;;;;;47.65;20.95;;;;;;;;;;1042716;28;20056;-68
2023/12/07 00:40:28;;;;;;;56.40;21.98;;;;;;;;;;1043183;28;20055;-68
2023/12/07 00:40:59;;;;;;;44.50;20.75;;;;;;;;;;1048328;28;20040;-69
2023/12/07 00:41:30;;;;;;;48.05;19.25;;;;;;;;;;1047197;28;20044;-69
2023/12/07 00:42:00;;;;;;;52.47;22.63;;;;;;;;;;1046213;28;20338;-69
2023/12/07 00:42:31;;;;;;;53.15;21.73;;;;;;;;;;1045922;28;20495;-69
2023/12/07 00:43:01;;;;;;;57.33;22.50;;;;;;;;;;1043972;28;20509;-69
2023/12/07 00:43:32;;;;;;;49.42;20.58;;;;;;;;;;1043369;28;20076;-69
2023/12/07 00:44:02;;;;;;;53.50;21.58;;;;;;;;;;1045263;28;20044;-69
2023/12/07 00:44:33;;;;;;;57.15;21.60;;;;;;;;;;1042001;28;20542;-69
2023/12/07 00:45:04;;;;;;;50.22;20.95;;;;;;;;;;1043046;28;20664;-68
2023/12/07 00:45:35;;;;;;;52.28;20.67;;;;;;;;;;1042787;28;20062;-68
2023/12/07 00:46:07;;;;;;;53.25;22.35;;;;;;;;;;1043106;28;20063;-68
2023/12/07 00:46:38;;;;;;;54.17;21.15;;;;;;;;;;1043127;28;20382;-68
2023/12/07 00:47:08;;;;;;;52.88;21.08;;;;;;;;;;1042793;28;20702;-69
2023/12/07 00:47:39;;;;;;;57.10;21.00;;;;;;;;;;1042470;28;20064;-69
2023/12/07 00:48:10;;;;;;;62.13;23.25;;;;;;;;;;1044311;28;20049;-69
2023/12/07 00:48:40;;;;;;;53.22;22.67;;;;;;;;;;1043657;28;20040;-68
2023/12/07 00:49:12;;;;;;;53.50;23.30;;;;;;;;;;1044278;28;20089;-69
2023/12/07 00:49:42;;;;;;;56.17;23.20;;;;;;;;;;1041875;28;20045;-69
2023/12/07 00:50:14;;;;;;;57.75;22.35;;;;;;;;;;1044637;28;20040;-69
2023/12/07 00:50:45;;;;;;;52.05;21.23;;;;;;;;;;1039698;28;20057;-69
2023/12/07 00:51:15;;;;;;;47.15;20.50;;;;;;;;;;1040424;28;20041;-69
2023/12/07 00:51:46;;;;;;;55.53;21.73;;;;;;;;;;1039992;28;20792;-69
2023/12/07 00:52:16;;;;;;;58.22;21.23;;;;;;;;;;1038358;28;20716;-69
2023/12/07 00:52:47;;;;;;;48.30;21.88;;;;;;;;;;1045108;28;20056;-68
2023/12/07 00:53:18;;;;;;;51.88;22.45;;;;;;;;;;1044572;28;20403;-69
2023/12/07 00:53:48;;;;;;;46.13;20.83;;;;;;;;;;1046084;28;20675;-69
2023/12/07 00:54:19;;;;;;;49.75;22.00;;;;;;;;;;1044045;28;20090;-69
2023/12/07 00:54:49;;;;;;;50.65;20.90;;;;;;;;;;1045224;28;20041;-69
2023/12/07 00:55:20;;;;;;;46.42;20.13;;;;;;;;;;1043298;28;20052;-68
2023/12/07 00:55:50;;;;;;;54.22;21.13;;;;;;;;;;1045985;28;20080;-68
2023/12/07 00:56:21;;;;;;;57.88;21.48;;;;;;;;;;1044088;28;20060;-69
2023/12/07 00:56:52;;;;;;;52.42;21.65;;;;;;;;;;1042880;28;20089;-69
2023/12/07 00:57:22;;;;;;;55.28;21.45;;;;;;;;;;1044352;28;20052;-69
2023/12/07 00:57:53;;;;;;;57.38;22.33;;;;;;;;;;1045640;28;20044;-68
2023/12/07 00:58:23;;;;;;;55.28;21.17;;;;;;;;;;1045536;28;20044;-68
2023/12/07 00:58:54;;;;;;;54.15;21.42;;;;;;;;;;1044785;28;20047;-68
2023/12/07 00:59:24;;;;;;;51.33;21.27;;;;;;;;;;1047599;28;20056;-68
2023/12/07 00:59:55;;;;;;;55.65;20.85;;;;;;;;;;1048540;28;20114;-68
2023/12/07 01:00:25;;;;;;;55.30;22.40;;;;;;;;;;1047852;28;20056;-69
2023/12/07 01:00:56;;;;;;;60.33;22.40;;;;;;;;;;1049258;28;20115;-68
2023/12/07 01:01:28;;;;;;;53.92;22.63;;;;;;;;;;1048793;28;20040;-69
2023/12/07 01:01:59;;;;;;;56.03;21.52;;;;;;;;;;1048671;28;20051;-69
2023/12/07 01:02:29;;;;;;;56.00;20.52;;;;;;;;;;1049815;28;20134;-69
2023/12/07 01:03:00;;;;;;;56.22;22.10;;;;;;;;;;1049690;28;20788;-68
2023/12/07 01:03:30;;;;;;;57.60;22.38;;;;;;;;;;1050368;28;20047;-68
2023/12/07 01:04:01;;;;;;;55.83;22.15;;;;;;;;;;1049885;28;20822;-68
2023/12/07 01:04:32;;;;;;;52.35;22.83;;;;;;;;;;1049612;28;20090;-68
2023/12/07 01:05:03;;;;;;;55.83;22.05;;;;;;;;;;1048197;28;20094;-68
2023/12/07 01:05:34;;;;;;;52.97;21.80;;;;;;;;;;1049399;28;20048;-69
2023/12/07 01:06:06;;;;;;;54.13;21.75;;;;;;;;;;1046281;28;20040;-69
2023/12/07 01:06:37;;;;;;;52.35;20.83;;;;;;;;;;1048006;28;20445;-68
2023/12/07 01:07:07;;;;;;;48.60;20.65;;;;;;;;;;1050009;28;20074;-69
2023/12/07 01:07:38;;;;;;;60.85;21.58;;;;;;;;;;1047242;28;20043;-68
2023/12/07 01:08:08;;;;;;;61.17;21.80;;;;;;;;;;1049689;28;20181;-68
2023/12/07 01:08:39;;;;;;;53.35;22.23;;;;;;;;;;1049709;28;20499;-68
2023/12/07 01:09:13;;;;;;;56.65;21.88;;;;;;;;;;1049310;28;20047;-68
2023/12/07 01:09:43;;;;;;;56.30;22.92;;;;;;;;;;1045517;28;20055;-69
2023/12/07 01:10:14;;;;;;;59.35;21.13;;;;;;;;;;1049182;28;20042;-69
2023/12/07 01:10:44;;;;;;;50.78;22.00;;;;;;;;;;1048045;28;20051;-68
2023/12/07 01:11:15;;;;;;;53.38;22.50;;;;;;;;;;1049421;28;20754;-69
2023/12/07 01:11:45;;;;;;;60.20;21.02;;;;;;;;;;1048749;28;20055;-68
2023/12/07 01:12:16;;;;;;;52.47;20.75;;;;;;;;;;1048317;28;20102;-68
2023/12/07 01:12:46;;;;;;;53.92;20.83;;;;;;;;;;1050252;28;20039;-68
2023/12/07 01:13:17;;;;;;;53.92;20.80;;;;;;;;;;1049840;28;20058;-69
2023/12/07 01:13:48;;;;;;;57.03;21.55;;;;;;;;;;1049837;28;20066;-68
2023/12/07 01:14:18;;;;;;;64.63;22.73;;;;;;;;;;1050314;28;20634;-69
2023/12/07 01:14:49;;;;;;;54.40;20.98;;;;;;;;;;1051231;28;20396;-69
2023/12/07 01:15:19;;;;;;;57.42;22.90;;;;;;;;;;1048650;28;20040;-69
2023/12/07 01:15:50;;;;;;;54.38;22.42;;;;;;;;;;1049785;28;20044;-68
2023/12/07 01:16:21;;;;;;;53.33;20.83;;;;;;;;;;1048541;28;20052;-68
2023/12/07 01:16:52;;;;;;;54.58;22.38;;;;;;;;;;1050868;28;20040;-68
2023/12/07 01:17:22;;;;;;;51.35;20.95;;;;;;;;;;1049069;28;20695;-69
2023/12/07 01:17:53;;;;;;;54.20;21.60;;;;;;;;;;1050639;28;20044;-68
2023/12/07 01:18:23;;;;;;;53.83;20.88;;;;;;;;;;1049332;28;20532;-69
2023/12/07 01:18:54;;;;;;;57.88;22.52;;;;;;;;;;1050175;28;20453;-68
2023/12/07 01:19:25;;;;;;;52.88;20.98;;;;;;;;;;1049436;28;20079;-69
2023/12/07 01:19:55;;;;;;;57.53;21.90;;;;;;;;;;1050750;28;20046;-69
2023/12/07 01:20:26;;;;;;;57.35;23.42;;;;;;;;;;1048598;28;20050;-69
2023/12/07 01:20:56;;;;;;;56.22;23.23;;;;;;;;;;1049908;28;20625;-68
2023/12/07 01:21:27;;;;;;;64.00;21.60;;;;;;;;;;1050338;28;20044;-68
2023/12/07 01:21:57;;;;;;;47.85;20.60;;;;;;;;;;1049420;28;20120;-69
2023/12/07 01:22:28;;;;;;;52.20;21.02;;;;;;;;;;1049847;28;20048;-68
2023/12/07 01:22:58;;;;;;;51.58;20.58;;;;;;;;;;1049973;28;20786;-68
2023/12/07 01:23:29;;;;;;;55.13;22.00;;;;;;;;;;1048665;28;20487;-68
2023/12/07 01:24:00;;;;;;;63.72;22.77;;;;;;;;;;1049287;28;20036;-68
2023/12/07 01:24:30;;;;;;;59.78;23.13;;;;;;;;;;1048379;28;20044;-69
2023/12/07 01:25:01;;;;;;;59.08;21.00;;;;;;;;;;1049473;28;20500;-69
2023/12/07 01:25:31;;;;;;;57.50;22.83;;;;;;;;;;1049921;28;20036;-68
2023/12/07 01:26:02;;;;;;;50.85;21.45;;;;;;;;;;1047318;28;20127;-69
2023/12/07 01:26:32;;;;;;;47.83;20.33;;;;;;;;;;1049302;28;20048;-69
2023/12/07 01:27:03;;;;;;;56.15;21.77;;;;;;;;;;1049821;28;20151;-69
2023/12/07 01:27:34;;;;;;;51.28;20.70;;;;;;;;;;1049449;28;20040;-68
2023/12/07 01:28:05;;;;;;;56.90;22.98;;;;;;;;;;1049591;28;20036;-68
2023/12/07 01:28:35;;;;;;;52.08;20.73;;;;;;;;;;1049221;28;20048;-69
2023/12/07 01:29:06;;;;;;;58.17;21.40;;;;;;;;;;1049810;28;20036;-68
2023/12/07 01:29:36;;;;;;;58.63;21.42;;;;;;;;;;1049366;28;20105;-69
2023/12/07 01:30:07;;;;;;;53.58;20.90;;;;;;;;;;1048829;28;20427;-68
2023/12/07 01:30:38;;;;;;;55.72;21.50;;;;;;;;;;1049330;28;20132;-69
2023/12/07 01:31:08;;;;;;;51.65;20.65;;;;;;;;;;1049503;28;20098;-69
2023/12/07 01:31:40;;;;;;;49.95;20.70;;;;;;;;;;1049204;28;20130;-69
2023/12/07 01:32:11;;;;;;;56.47;22.00;;;;;;;;;;1049526;28;20068;-68
2023/12/07 01:32:41;;;;;;;51.95;20.80;;;;;;;;;;1047821;28;20040;-68
2023/12/07 01:33:12;;;;;;;61.17;22.73;;;;;;;;;;1050161;28;20476;-69
2023/12/07 01:33:45;;;;;;;60.20;21.98;;;;;;;;;;1049726;28;20052;-69
2023/12/07 01:34:18;;;;;;;62.20;21.65;;;;;;;;;;1049366;28;20564;-69
2023/12/07 01:34:48;;;;;;;51.67;20.95;;;;;;;;;;1050431;28;20496;-69
2023/12/07 01:35:19;;;;;;;59.08;22.05;;;;;;;;;;1049861;28;20511;-69
2023/12/07 01:35:50;;;;;;;59.75;22.30;;;;;;;;;;1047934;28;20052;-68
2023/12/07 01:36:21;;;;;;;56.55;22.00;;;;;;;;;;1049047;28;20048;-68
2023/12/07 01:36:51;;;;;;;58.88;20.95;;;;;;;;;;1050683;28;20051;-69
2023/12/07 01:37:22;;;;;;;50.72;21.00;;;;;;;;;;1048339;28;20104;-69
2023/12/07 01:37:52;;;;;;;58.33;22.20;;;;;;;;;;1049370;28;20424;-68
2023/12/07 01:38:23;;;;;;;62.80;21.98;;;;;;;;;;1049650;28;20407;-69
2023/12/07 01:38:53;;;;;;;56.63;21.95;;;;;;;;;;1049741;28;20052;-69
2023/12/07 01:39:24;;;;;;;60.33;21.13;;;;;;;;;;1048497;28;20131;-68
2023/12/07 01:39:55;;;;;;;59.22;22.05;;;;;;;;;;1046432;28;20094;-69
2023/12/07 01:40:25;;;;;;;56.70;21.55;;;;;;;;;;1047709;28;20055;-68
2023/12/07 01:40:56;;;;;;;51.60;20.13;;;;;;;;;;1049956;28;20139;-69
2023/12/07 01:41:26;;;;;;;55.10;21.38;;;;;;;;;;1048749;28;20125;-69
2023/12/07 01:41:57;;;;;;;50.45;20.67;;;;;;;;;;1050177;28;20159;-69
2023/12/07 01:42:27;;;;;;;56.85;22.48;;;;;;;;;;1049733;28;20498;-69
2023/12/07 01:42:58;;;;;;;61.35;22.67;;;;;;;;;;1050505;28;20598;-69
2023/12/07 01:43:29;;;;;;;58.13;22.20;;;;;;;;;;1049758;28;20040;-68
2023/12/07 01:43:59;;;;;;;51.38;21.92;;;;;;;;;;1050337;28;20507;-69
2023/12/07 01:44:30;;;;;;;57.95;22.02;;;;;;;;;;1049349;28;20044;-69
2023/12/07 01:45:00;;;;;;;57.33;22.15;;;;;;;;;;1050513;28;20040;-69
2023/12/07 01:45:31;;;;;;;66.38;22.70;;;;;;;;;;1049646;28;20051;-68
2023/12/07 01:46:03;;;;;;;57.50;22.58;;;;;;;;;;1048990;28;20032;-69
2023/12/07 01:46:34;;;;;;;68.65;24.65;;;;;;;;;;1050020;28;20135;-68
2023/12/07 01:47:07;;;;;;;60.65;21.55;;;;;;;;;;1049797;28;20036;-69
2023/12/07 01:47:38;;;;;;;56.13;21.63;;;;;;;;;;1049892;28;20115;-69
2023/12/07 01:48:09;;;;;;;62.20;23.13;;;;;;;;;;1046940;28;20040;-69
2023/12/07 01:48:39;;;;;;;57.63;23.42;;;;;;;;;;1049712;28;20048;-69
2023/12/07 01:49:10;;;;;;;60.47;20.95;;;;;;;;;;1049630;28;20506;-69
2023/12/07 01:49:41;;;;;;;61.25;22.83;;;;;;;;;;1049433;28;20051;-69
2023/12/07 01:50:14;;;;;;;71.75;23.35;;;;;;;;;;1049081;28;20119;-68
2023/12/07 01:50:46;;;;;;;66.43;24.05;;;;;;;;;;1049240;28;20048;-68
2023/12/07 01:51:19;;;;;;;63.25;23.55;;;;;;;;;;1048441;28;20040;-68
2023/12/07 01:51:50;;;;;;;62.03;22.63;;;;;;;;;;1049549;28;20070;-69
2023/12/07 01:52:22;;;;;;;58.72;22.85;;;;;;;;;;1048832;28;20383;-68
2023/12/07 01:52:57;;;;;;;63.63;22.30;;;;;;;;;;1049083;28;20036;-69
2023/12/07 01:53:28;;;;;;;57.83;23.27;;;;;;;;;;1048797;28;20033;-69
2023/12/07 01:53:59;;;;;;;61.75;21.30;;;;;;;;;;1049977;28;20043;-69
2023/12/07 01:54:30;;;;;;;56.08;22.25;;;;;;;;;;1049688;28;20043;-69
2023/12/07 01:55:01;;;;;;;58.00;22.60;;;;;;;;;;1048629;28;20055;-68
2023/12/07 01:55:32;;;;;;;62.28;23.73;;;;;;;;;;1048890;28;20059;-68
2023/12/07 01:56:03;;;;;;;67.05;22.48;;;;;;;;;;1049928;28;20381;-69
2023/12/07 01:56:34;;;;;;;61.20;23.52;;;;;;;;;;1049047;28;20044;-69
2023/12/07 01:57:05;;;;;;;67.00;23.98;;;;;;;;;;1050311;28;20105;-69
2023/12/07 01:57:37;;;;;;;63.05;23.23;;;;;;;;;;1049692;28;20129;-69
2023/12/07 01:58:08;;;;;;;69.20;24.85;;;;;;;;;;1049133;28;20175;-68
2023/12/07 01:58:38;;;;;;;62.75;23.95;;;;;;;;;;1047170;28;20125;-69
2023/12/07 01:59:11;;;;;;;69.65;22.67;;;;;;;;;;1050916;28;20059;-68
2023/12/07 01:59:41;;;;;;;66.43;23.40;;;;;;;;;;1049395;28;20377;-69
2023/12/07 02:00:15;;;;;;;61.47;22.38;;;;;;;;;;1048906;28;20526;-68
2023/12/07 02:00:47;;;;;;;61.63;21.70;;;;;;;;;;1045491;28;20497;-69
2023/12/07 02:01:17;;;;;;;71.97;23.67;;;;;;;;;;1045313;28;20090;-69
2023/12/07 02:01:48;;;;;;;63.88;23.10;;;;;;;;;;1044878;28;20041;-68
2023/12/07 02:02:19;;;;;;;68.68;22.75;;;;;;;;;;1044422;28;20052;-68
2023/12/07 02:02:51;;;;;;;64.25;22.00;;;;;;;;;;1045080;28;20040;-69
2023/12/07 02:03:23;;;;;;;67.82;23.75;;;;;;;;;;1043886;28;20128;-69
2023/12/07 02:03:53;;;;;;;63.25;24.20;;;;;;;;;;1044069;28;20742;-68
2023/12/07 02:04:24;;;;;;;69.35;23.35;;;;;;;;;;1041666;28;20493;-69
2023/12/07 02:04:55;;;;;;;67.90;23.70;;;;;;;;;;1046559;28;20135;-69
2023/12/07 02:05:26;;;;;;;66.65;24.02;;;;;;;;;;1046473;28;20102;-68
2023/12/07 02:05:57;;;;;;;63.58;23.55;;;;;;;;;;1050256;28;20407;-69
2023/12/07 02:06:28;;;;;;;68.75;25.00;;;;;;;;;;1047949;28;20446;-68
2023/12/07 02:07:00;;;;;;;67.65;24.08;;;;;;;;;;1050018;28;20859;-69
2023/12/07 02:07:31;;;;;;;62.97;23.08;;;;;;;;;;1047631;28;20503;-69
2023/12/07 02:08:01;;;;;;;68.20;23.88;;;;;;;;;;1045298;28;20707;-69
2023/12/07 02:08:32;;;;;;;65.88;24.20;;;;;;;;;;1046885;28;20072;-69
2023/12/07 02:09:03;;;;;;;67.05;22.95;;;;;;;;;;1050042;28;20449;-68
2023/12/07 02:09:34;;;;;;;62.67;22.52;;;;;;;;;;1045189;28;20065;-69
2023/12/07 02:10:05;;;;;;;71.80;23.67;;;;;;;;;;1046033;28;20037;-68
2023/12/07 02:10:36;;;;;;;72.55;24.25;;;;;;;;;;1044331;28;20394;-69
2023/12/07 02:11:09;;;;;;;77.13;24.10;;;;;;;;;;1045933;28;20805;-69
2023/12/07 02:11:40;;;;;;;61.35;22.00;;;;;;;;;;1045434;28;20048;-68
2023/12/07 02:12:10;;;;;;;70.45;24.08;;;;;;;;;;1045738;28;20144;-69
2023/12/07 02:12:41;;;;;;;69.28;23.33;;;;;;;;;;1045769;28;20156;-69
2023/12/07 02:13:12;;;;;;;58.83;24.10;;;;;;;;;;1046222;28;20461;-69
2023/12/07 02:13:43;;;;;;;66.57;24.25;;;;;;;;;;1044950;28;20551;-68
2023/12/07 02:14:14;;;;;;;62.40;23.27;;;;;;;;;;1045816;28;20716;-69
2023/12/07 02:14:45;;;;;;;72.35;24.15;;;;;;;;;;1045578;28;20720;-69
2023/12/07 02:15:16;;;;;;;75.63;26.08;;;;;;;;;;1044808;28;20040;-69
2023/12/07 02:15:46;;;;;;;63.05;23.35;;;;;;;;;;1044823;28;20033;-69
2023/12/07 02:16:29;;;;;;;62.53;23.23;;;;;;;;;;1043784;28;20052;-69
2023/12/07 02:17:21;;;;;;;65.72;22.88;;;;;;;;;;1046896;28;20052;-69
2023/12/07 02:18:01;;;;;;;67.45;23.30;;;;;;;;;;1050629;28;20052;-68
2023/12/07 02:18:44;;;;;;;67.85;22.77;;;;;;;;;;1045656;28;20043;-69
2023/12/07 02:19:47;;;;;;;63.65;21.88;;;;;;;;;;1044993;28;20048;-69
2023/12/07 02:20:24;;;;;;;61.13;22.80;;;;;;;;;;1043562;28;20107;-69
2023/12/07 02:20:55;;;;;;;64.88;21.60;;;;;;;;;;1049180;28;20094;-69
2023/12/07 02:21:33;;;;;;;62.65;22.23;;;;;;;;;;1049990;28;20117;-68
2023/12/07 02:22:12;;;;;;;62.20;22.17;;;;;;;;;;1049635;28;20097;-68
2023/12/07 02:22:49;;;;;;;66.90;23.52;;;;;;;;;;1048170;28;20040;-68
2023/12/07 02:23:22;;;;;;;65.57;22.38;;;;;;;;;;1048322;28;20165;-68
2023/12/07 02:23:54;;;;;;;66.47;23.73;;;;;;;;;;1049967;28;20044;-69
2023/12/07 02:24:27;;;;;;;66.03;21.75;;;;;;;;;;1048326;28;20054;-69
2023/12/07 02:25:08;;;;;;;64.13;22.42;;;;;;;;;;1044885;28;20568;-69
2023/12/07 02:26:20;;;;;;;59.75;22.85;;;;;;;;;;1045090;28;20045;-68
2023/12/07 02:26:51;;;;;;;60.78;20.17;;;;;;;;;;1045211;28;20053;-69
2023/12/07 02:27:38;;;;;;;73.15;23.20;;;;;;;;;;1044357;28;20044;-69
2023/12/07 02:28:09;;;;;;;63.83;21.65;;;;;;;;;;1049473;28;20157;-69
2023/12/07 02:28:40;;;;;;;62.58;22.00;;;;;;;;;;1047971;28;20052;-69
2023/12/07 02:29:10;;;;;;;64.63;22.45;;;;;;;;;;1049580;28;20455;-68
2023/12/07 02:29:41;;;;;;;75.38;22.17;;;;;;;;;;1046736;28;20542;-68
2023/12/07 02:30:12;;;;;;;67.25;24.95;;;;;;;;;;1047463;28;20131;-69
2023/12/07 02:30:43;;;;;;;72.05;24.83;;;;;;;;;;1048581;28;20055;-69
2023/12/07 02:31:14;;;;;;;69.15;22.60;;;;;;;;;;1050427;28;20052;-69
2023/12/07 02:31:45;;;;;;;60.67;23.15;;;;;;;;;;1049668;28;20048;-68
2023/12/07 02:32:15;;;;;;;73.75;23.05;;;;;;;;;;1048296;28;20044;-69
2023/12/07 02:32:46;;;;;;;77.70;24.25;;;;;;;;;;1050835;28;20455;-68
2023/12/07 02:33:17;;;;;;;69.78;23.88;;;;;;;;;;1050277;28;20151;-69
2023/12/07 02:33:48;;;;;;;73.00;23.67;;;;;;;;;;1046015;28;20044;-68
2023/12/07 02:34:19;;;;;;;70.43;24.27;;;;;;;;;;1050254;28;20056;-69
2023/12/07 02:34:50;;;;;;;62.45;23.10;;;;;;;;;;1051012;28;20040;-69
2023/12/07 02:35:20;;;;;;;67.53;23.95;;;;;;;;;;1049527;28;20114;-68
2023/12/07 02:35:51;;;;;;;67.32;23.15;;;;;;;;;;1048991;28;20043;-69
2023/12/07 02:36:24;;;;;;;74.57;25.05;;;;;;;;;;1049468;28;20454;-68
2023/12/07 02:36:58;;;;;;;63.20;24.15;;;;;;;;;;1050693;28;20035;-68
2023/12/07 02:37:37;;;;;;;75.38;24.58;;;;;;;;;;1048378;28;20551;-68
2023/12/07 02:38:08;;;;;;;75.82;24.55;;;;;;;;;;1049931;28;20860;-69
2023/12/07 02:38:39;;;;;;;63.58;23.90;;;;;;;;;;1049351;28;20058;-69
2023/12/07 02:39:12;;;;;;;75.97;24.35;;;;;;;;;;1050436;28;20407;-68
2023/12/07 02:39:43;;;;;;;73.38;21.83;;;;;;;;;;1051682;28;20992;-69
2023/12/07 02:40:26;;;;;;;69.45;23.38;;;;;;;;;;1053601;28;20765;-69
2023/12/07 02:40:59;;;;;;;68.07;23.65;;;;;;;;;;1052529;28;20055;-68
2023/12/07 02:41:32;;;;;;;71.18;23.65;;;;;;;;;;1051148;28;20117;-69
2023/12/07 02:42:03;;;;;;;68.03;23.23;;;;;;;;;;1048106;28;20197;-69
2023/12/07 02:42:33;;;;;;;62.00;22.52;;;;;;;;;;1050233;28;20150;-68
2023/12/07 02:43:04;;;;;;;70.53;22.30;;;;;;;;;;1049924;28;20077;-69
2023/12/07 02:43:35;;;;;;;66.22;22.25;;;;;;;;;;1050128;28;20040;-69
2023/12/07 02:44:07;;;;;;;78.00;23.88;;;;;;;;;;1046983;28;20098;-68
2023/12/07 02:44:38;;;;;;;75.28;23.17;;;;;;;;;;1050196;28;20098;-69
2023/12/07 02:45:10;;;;;;;69.70;22.95;;;;;;;;;;1047318;28;20036;-68
2023/12/07 02:45:41;;;;;;;70.70;23.45;;;;;;;;;;1049797;28;20052;-68
2023/12/07 02:46:12;;;;;;;63.33;22.92;;;;;;;;;;1051094;28;20036;-68
2023/12/07 02:46:44;;;;;;;67.82;22.52;;;;;;;;;;1050821;28;20476;-69
2023/12/07 02:47:15;;;;;;;67.50;22.58;;;;;;;;;;1045629;28;20043;-69
2023/12/07 02:47:46;;;;;;;68.07;22.95;;;;;;;;;;1046908;28;20056;-69
2023/12/07 02:48:17;;;;;;;66.65;23.65;;;;;;;;;;1047549;28;20439;-69
2023/12/07 02:48:48;;;;;;;73.68;24.60;;;;;;;;;;1046749;28;20069;-69
2023/12/07 02:49:19;;;;;;;68.82;23.42;;;;;;;;;;1045631;28;20049;-69
2023/12/07 02:49:49;;;;;;;65.75;22.30;;;;;;;;;;1046114;28;20546;-69
2023/12/07 02:50:20;;;;;;;77.63;23.75;;;;;;;;;;1046932;28;20523;-69
2023/12/07 02:50:50;;;;;;;68.63;22.70;;;;;;;;;;1049721;28;20416;-69
2023/12/07 02:51:21;;;;;;;73.03;25.10;;;;;;;;;;1049118;28;20032;-68
2023/12/07 02:51:51;;;;;;;71.43;23.98;;;;;;;;;;1047969;28;20407;-69
2023/12/07 02:52:22;;;;;;;63.05;22.08;;;;;;;;;;1049225;28;20467;-70
2023/12/07 02:52:53;;;;;;;66.00;23.63;;;;;;;;;;1049916;28;20044;-69
2023/12/07 02:53:24;;;;;;;63.95;24.42;;;;;;;;;;1050129;28;20075;-68
2023/12/07 02:53:55;;;;;;;70.32;23.02;;;;;;;;;;1044647;28;20425;-69
2023/12/07 02:54:25;;;;;;;70.47;24.50;;;;;;;;;;1045903;28;20478;-69
2023/12/07 02:54:56;;;;;;;77.63;23.58;;;;;;;;;;1049792;28;20058;-68
2023/12/07 02:55:26;;;;;;;67.72;23.80;;;;;;;;;;1049862;28;20097;-68
2023/12/07 02:55:57;;;;;;;72.47;22.83;;;;;;;;;;1047422;28;20078;-69
2023/12/07 02:56:28;;;;;;;70.75;22.52;;;;;;;;;;1048786;28;20050;-69
2023/12/07 02:56:58;;;;;;;68.40;23.67;;;;;;;;;;1043427;28;20037;-69
2023/12/07 02:57:29;;;;;;;64.03;22.65;;;;;;;;;;1043701;28;20064;-68
2023/12/07 02:58:00;;;;;;;62.50;22.50;;;;;;;;;;1044612;28;20040;-69
2023/12/07 02:58:30;;;;;;;75.40;23.65;;;;;;;;;;1042460;28;22748;-69
2023/12/07 02:59:01;;;;;;;78.82;23.15;;;;;;;;;;1044697;28;20115;-68
2023/12/07 02:59:31;;;;;;;70.95;22.83;;;;;;;;;;1044572;28;20048;-69
2023/12/07 03:00:06;;;;;;;76.78;24.83;;;;;;;;;;1044532;28;20119;-69
2023/12/07 03:00:37;;;;;;;75.65;23.10;;;;;;;;;;1042353;28;20113;-69
2023/12/07 03:01:08;;;;;;;61.72;22.42;;;;;;;;;;1044719;28;20620;-69
2023/12/07 03:01:38;;;;;;;63.67;22.75;;;;;;;;;;1043750;28;20041;-69
2023/12/07 03:02:09;;;;;;;67.15;23.75;;;;;;;;;;1044866;28;20041;-69
2023/12/07 03:02:40;;;;;;;72.03;24.70;;;;;;;;;;1042166;28;20052;-69
2023/12/07 03:03:10;;;;;;;76.88;23.02;;;;;;;;;;1044350;28;20056;-69